sensor_id;sensor_type;location;lat;lon;timestamp;P1;durP1;ratioP1;P2;durP2;ratioP2
82744;SDS011;72484;50.004;14.356;2024-02-23T00:02:14;6.60;;;2.30;;
82744;SDS011;72484;50.004;14.356;2024-02-23T00:06:13;6.00;;;1.90;;
82744;SDS011;72484;50.004;14.356;2024-02-23T00:10:32;5.50;;;1.70;;
82744;SDS011;72484;50.004;14.356;2024-02-23T00:13:51;7.00;;;1.80;;
82744;SDS011;72484;50.004;14.356;2024-02-23T00:17:52;5.50;;;1.40;;
82744;SDS011;72484;50.004;14.356;2024-02-23T00:22:18;5.50;;;1.30;;
82744;SDS011;72484;50.004;14.356;2024-02-23T00:25:48;5.40;;;1.40;;
82744;SDS011;72484;50.004;14.356;2024-02-23T00:29:27;5.80;;;1.40;;
82744;SDS011;72484;50.004;14.356;2024-02-23T00:32:46;5.20;;;1.10;;
82744;SDS011;72484;50.004;14.356;2024-02-23T00:36:45;4.70;;;1.00;;
82744;SDS011;72484;50.004;14.356;2024-02-23T00:40:44;5.40;;;1.20;;
82744;SDS011;72484;50.004;14.356;2024-02-23T00:44:44;4.90;;;1.20;;
82744;SDS011;72484;50.004;14.356;2024-02-23T00:48:45;4.80;;;1.20;;
82744;SDS011;72484;50.004;14.356;2024-02-23T00:53:03;4.90;;;1.20;;
82744;SDS011;72484;50.004;14.356;2024-02-23T00:56:40;5.30;;;1.50;;
82744;SDS011;72484;50.004;14.356;2024-02-23T01:00:01;4.60;;;1.00;;
82744;SDS011;72484;50.004;14.356;2024-02-23T01:04:02;4.80;;;0.90;;
82744;SDS011;72484;50.004;14.356;2024-02-23T01:08:20;5.10;;;1.10;;
82744;SDS011;72484;50.004;14.356;2024-02-23T01:11:41;4.90;;;0.90;;
82744;SDS011;72484;50.004;14.356;2024-02-23T01:15:44;5.80;;;1.10;;
82744;SDS011;72484;50.004;14.356;2024-02-23T01:20:02;4.70;;;1.00;;
82744;SDS011;72484;50.004;14.356;2024-02-23T01:23:39;5.40;;;0.80;;
82744;SDS011;72484;50.004;14.356;2024-02-23T01:26:59;4.10;;;0.70;;
82744;SDS011;72484;50.004;14.356;2024-02-23T01:31:17;4.10;;;0.80;;
82744;SDS011;72484;50.004;14.356;2024-02-23T01:34:57;4.00;;;0.80;;
82744;SDS011;72484;50.004;14.356;2024-02-23T01:38:15;4.10;;;0.70;;
82744;SDS011;72484;50.004;14.356;2024-02-23T01:42:17;6.00;;;0.70;;
82744;SDS011;72484;50.004;14.356;2024-02-23T01:46:20;3.80;;;0.70;;
82744;SDS011;72484;50.004;14.356;2024-02-23T01:50:41;4.00;;;0.60;;
82744;SDS011;72484;50.004;14.356;2024-02-23T01:54:17;3.60;;;0.60;;
82744;SDS011;72484;50.004;14.356;2024-02-23T01:57:37;4.10;;;0.60;;
82744;SDS011;72484;50.004;14.356;2024-02-23T02:01:55;4.60;;;0.60;;
82744;SDS011;72484;50.004;14.356;2024-02-23T02:05:14;4.00;;;0.60;;
82744;SDS011;72484;50.004;14.356;2024-02-23T02:09:32;3.80;;;0.70;;
82744;SDS011;72484;50.004;14.356;2024-02-23T02:13:09;4.00;;;0.70;;
82744;SDS011;72484;50.004;14.356;2024-02-23T02:16:46;3.10;;;0.60;;
82744;SDS011;72484;50.004;14.356;2024-02-23T02:20:24;3.70;;;0.60;;
82744;SDS011;72484;50.004;14.356;2024-02-23T02:23:45;3.80;;;0.80;;
82744;SDS011;72484;50.004;14.356;2024-02-23T02:27:44;3.50;;;0.60;;
82744;SDS011;72484;50.004;14.356;2024-02-23T02:32:01;4.00;;;0.80;;
82744;SDS011;72484;50.004;14.356;2024-02-23T02:35:21;4.40;;;0.60;;
82744;SDS011;72484;50.004;14.356;2024-02-23T02:39:21;4.00;;;0.70;;
82744;SDS011;72484;50.004;14.356;2024-02-23T02:43:24;3.80;;;0.60;;
82744;SDS011;72484;50.004;14.356;2024-02-23T02:47:24;4.00;;;0.80;;
82744;SDS011;72484;50.004;14.356;2024-02-23T02:51:22;3.90;;;0.70;;
82744;SDS011;72484;50.004;14.356;2024-02-23T02:55:22;3.30;;;0.50;;
82744;SDS011;72484;50.004;14.356;2024-02-23T02:59:21;4.40;;;0.80;;
82744;SDS011;72484;50.004;14.356;2024-02-23T03:03:39;3.40;;;0.60;;
82744;SDS011;72484;50.004;14.356;2024-02-23T03:06:59;11.20;;;4.40;;
82744;SDS011;72484;50.004;14.356;2024-02-23T03:10:58;4.70;;;0.80;;
82744;SDS011;72484;50.004;14.356;2024-02-23T03:15:16;3.20;;;0.60;;
82744;SDS011;72484;50.004;14.356;2024-02-23T03:18:36;3.60;;;0.60;;
82744;SDS011;72484;50.004;14.356;2024-02-23T03:22:53;4.00;;;0.60;;
82744;SDS011;72484;50.004;14.356;2024-02-23T03:26:32;3.70;;;0.50;;
82744;SDS011;72484;50.004;14.356;2024-02-23T03:29:52;3.60;;;0.50;;
82744;SDS011;72484;50.004;14.356;2024-02-23T03:34:10;4.70;;;0.70;;
82744;SDS011;72484;50.004;14.356;2024-02-23T03:37:29;4.00;;;0.80;;
82744;SDS011;72484;50.004;14.356;2024-02-23T03:41:47;3.80;;;0.60;;
82744;SDS011;72484;50.004;14.356;2024-02-23T03:45:07;3.20;;;0.60;;
82744;SDS011;72484;50.004;14.356;2024-02-23T03:49:07;4.10;;;0.80;;
82744;SDS011;72484;50.004;14.356;2024-02-23T03:53:07;5.10;;;1.00;;
82744;SDS011;72484;50.004;14.356;2024-02-23T03:57:09;6.30;;;1.10;;
82744;SDS011;72484;50.004;14.356;2024-02-23T04:01:08;6.20;;;1.90;;
82744;SDS011;72484;50.004;14.356;2024-02-23T04:05:26;5.70;;;1.40;;
82744;SDS011;72484;50.004;14.356;2024-02-23T04:08:46;8.60;;;3.10;;
82744;SDS011;72484;50.004;14.356;2024-02-23T04:13:05;7.10;;;2.50;;
82744;SDS011;72484;50.004;14.356;2024-02-23T04:16:25;3.50;;;0.70;;
82744;SDS011;72484;50.004;14.356;2024-02-23T04:20:24;3.20;;;0.60;;
82744;SDS011;72484;50.004;14.356;2024-02-23T04:24:25;3.20;;;0.40;;
82744;SDS011;72484;50.004;14.356;2024-02-23T04:28:25;3.40;;;0.50;;
82744;SDS011;72484;50.004;14.356;2024-02-23T04:32:45;3.60;;;0.70;;
82744;SDS011;72484;50.004;14.356;2024-02-23T04:36:23;3.00;;;0.50;;
82744;SDS011;72484;50.004;14.356;2024-02-23T04:40:00;3.40;;;0.60;;
82744;SDS011;72484;50.004;14.356;2024-02-23T04:43:37;4.70;;;0.60;;
82744;SDS011;72484;50.004;14.356;2024-02-23T04:46:58;3.40;;;0.60;;
82744;SDS011;72484;50.004;14.356;2024-02-23T04:51:16;3.50;;;0.50;;
82744;SDS011;72484;50.004;14.356;2024-02-23T04:54:35;3.50;;;0.60;;
82744;SDS011;72484;50.004;14.356;2024-02-23T04:58:56;3.40;;;0.50;;
82744;SDS011;72484;50.004;14.356;2024-02-23T05:02:13;4.20;;;0.80;;
82744;SDS011;72484;50.004;14.356;2024-02-23T05:06:13;3.00;;;0.50;;
82744;SDS011;72484;50.004;14.356;2024-02-23T05:10:14;3.20;;;0.50;;
82744;SDS011;72484;50.004;14.356;2024-02-23T05:14:14;3.20;;;0.50;;
82744;SDS011;72484;50.004;14.356;2024-02-23T05:18:13;3.50;;;0.60;;
82744;SDS011;72484;50.004;14.356;2024-02-23T05:22:30;3.50;;;0.50;;
82744;SDS011;72484;50.004;14.356;2024-02-23T05:25:51;6.30;;;0.70;;
82744;SDS011;72484;50.004;14.356;2024-02-23T05:30:08;3.60;;;0.70;;
82744;SDS011;72484;50.004;14.356;2024-02-23T05:33:26;2.90;;;0.50;;
82744;SDS011;72484;50.004;14.356;2024-02-23T05:37:43;4.00;;;0.60;;
82744;SDS011;72484;50.004;14.356;2024-02-23T05:41:20;3.20;;;0.50;;
82744;SDS011;72484;50.004;14.356;2024-02-23T05:44:42;4.90;;;0.70;;
82744;SDS011;72484;50.004;14.356;2024-02-23T05:48:42;3.70;;;0.60;;
82744;SDS011;72484;50.004;14.356;2024-02-23T05:52:59;3.60;;;0.60;;
82744;SDS011;72484;50.004;14.356;2024-02-23T05:56:19;3.20;;;0.50;;
82744;SDS011;72484;50.004;14.356;2024-02-23T06:00:36;4.40;;;0.70;;
82744;SDS011;72484;50.004;14.356;2024-02-23T06:04:14;4.90;;;0.90;;
82744;SDS011;72484;50.004;14.356;2024-02-23T06:07:52;4.10;;;0.60;;
82744;SDS011;72484;50.004;14.356;2024-02-23T06:11:12;4.00;;;0.80;;
82744;SDS011;72484;50.004;14.356;2024-02-23T06:15:11;4.80;;;0.60;;
82744;SDS011;72484;50.004;14.356;2024-02-23T06:19:28;3.80;;;0.60;;
82744;SDS011;72484;50.004;14.356;2024-02-23T06:22:47;4.80;;;0.60;;
82744;SDS011;72484;50.004;14.356;2024-02-23T06:26:46;3.60;;;0.60;;
82744;SDS011;72484;50.004;14.356;2024-02-23T06:31:03;4.10;;;0.70;;
82744;SDS011;72484;50.004;14.356;2024-02-23T06:34:41;9.80;;;1.40;;
82744;SDS011;72484;50.004;14.356;2024-02-23T06:38:19;5.90;;;0.70;;
82744;SDS011;72484;50.004;14.356;2024-02-23T06:41:56;6.70;;;0.90;;
82744;SDS011;72484;50.004;14.356;2024-02-23T06:45:16;6.20;;;0.90;;
82744;SDS011;72484;50.004;14.356;2024-02-23T06:49:20;5.60;;;0.80;;
82744;SDS011;72484;50.004;14.356;2024-02-23T06:53:39;7.00;;;1.30;;
82744;SDS011;72484;50.004;14.356;2024-02-23T06:57:00;5.50;;;0.80;;
82744;SDS011;72484;50.004;14.356;2024-02-23T07:01:18;7.40;;;1.10;;
82744;SDS011;72484;50.004;14.356;2024-02-23T07:04:55;10.80;;;1.30;;
82744;SDS011;72484;50.004;14.356;2024-02-23T07:08:33;13.10;;;5.40;;
82744;SDS011;72484;50.004;14.356;2024-02-23T07:11:52;13.00;;;4.70;;
82744;SDS011;72484;50.004;14.356;2024-02-23T07:16:09;36.60;;;11.90;;
82744;SDS011;72484;50.004;14.356;2024-02-23T07:19:46;33.20;;;12.00;;
82744;SDS011;72484;50.004;14.356;2024-02-23T07:23:24;21.10;;;8.90;;
82744;SDS011;72484;50.004;14.356;2024-02-23T07:27:03;10.20;;;1.70;;
82744;SDS011;72484;50.004;14.356;2024-02-23T07:30:40;10.40;;;1.20;;
82744;SDS011;72484;50.004;14.356;2024-02-23T07:34:18;14.00;;;1.30;;
82744;SDS011;72484;50.004;14.356;2024-02-23T07:37:38;12.40;;;1.30;;
82744;SDS011;72484;50.004;14.356;2024-02-23T07:41:38;5.30;;;0.80;;
82744;SDS011;72484;50.004;14.356;2024-02-23T07:45:58;6.90;;;1.10;;
82744;SDS011;72484;50.004;14.356;2024-02-23T07:49:33;6.10;;;0.80;;
82744;SDS011;72484;50.004;14.356;2024-02-23T07:53:11;7.00;;;1.00;;
82744;SDS011;72484;50.004;14.356;2024-02-23T07:56:31;6.10;;;1.00;;
82744;SDS011;72484;50.004;14.356;2024-02-23T08:00:48;5.50;;;1.00;;
82744;SDS011;72484;50.004;14.356;2024-02-23T08:04:07;6.50;;;1.00;;
82744;SDS011;72484;50.004;14.356;2024-02-23T08:08:08;6.60;;;1.00;;
82744;SDS011;72484;50.004;14.356;2024-02-23T08:12:26;5.80;;;1.00;;
82744;SDS011;72484;50.004;14.356;2024-02-23T08:16:04;5.40;;;0.80;;
82744;SDS011;72484;50.004;14.356;2024-02-23T08:19:23;4.90;;;0.80;;
82744;SDS011;72484;50.004;14.356;2024-02-23T08:23:40;5.20;;;1.10;;
82744;SDS011;72484;50.004;14.356;2024-02-23T08:27:18;5.40;;;1.20;;
82744;SDS011;72484;50.004;14.356;2024-02-23T08:30:56;5.20;;;0.90;;
82744;SDS011;72484;50.004;14.356;2024-02-23T08:34:16;5.20;;;0.80;;
82744;SDS011;72484;50.004;14.356;2024-02-23T08:38:33;5.80;;;1.30;;
82744;SDS011;72484;50.004;14.356;2024-02-23T08:41:54;6.30;;;1.00;;
82744;SDS011;72484;50.004;14.356;2024-02-23T08:45:53;5.60;;;0.90;;
82744;SDS011;72484;50.004;14.356;2024-02-23T08:50:11;5.70;;;1.00;;
82744;SDS011;72484;50.004;14.356;2024-02-23T08:53:48;7.70;;;0.80;;
82744;SDS011;72484;50.004;14.356;2024-02-23T08:57:08;6.70;;;1.20;;
82744;SDS011;72484;50.004;14.356;2024-02-23T09:01:08;6.00;;;1.10;;
82744;SDS011;72484;50.004;14.356;2024-02-23T09:05:09;7.10;;;1.00;;
82744;SDS011;72484;50.004;14.356;2024-02-23T09:09:25;6.70;;;1.10;;
82744;SDS011;72484;50.004;14.356;2024-02-23T09:13:04;7.10;;;1.20;;
82744;SDS011;72484;50.004;14.356;2024-02-23T09:16:41;6.60;;;1.20;;
82744;SDS011;72484;50.004;14.356;2024-02-23T09:20:00;8.80;;;1.20;;
82744;SDS011;72484;50.004;14.356;2024-02-23T09:24:18;5.70;;;1.10;;
82744;SDS011;72484;50.004;14.356;2024-02-23T09:27:38;6.70;;;1.30;;
82744;SDS011;72484;50.004;14.356;2024-02-23T09:31:57;5.90;;;1.20;;
82744;SDS011;72484;50.004;14.356;2024-02-23T09:35:35;6.60;;;1.30;;
82744;SDS011;72484;50.004;14.356;2024-02-23T09:38:54;9.80;;;1.50;;
82744;SDS011;72484;50.004;14.356;2024-02-23T09:43:11;7.40;;;1.00;;
82744;SDS011;72484;50.004;14.356;2024-02-23T09:46:50;30.00;;;2.60;;
82744;SDS011;72484;50.004;14.356;2024-02-23T09:50:27;7.60;;;1.10;;
82744;SDS011;72484;50.004;14.356;2024-02-23T09:53:47;7.10;;;1.00;;
82744;SDS011;72484;50.004;14.356;2024-02-23T09:57:49;9.10;;;1.30;;
82744;SDS011;72484;50.004;14.356;2024-02-23T10:02:12;6.00;;;1.20;;
82744;SDS011;72484;50.004;14.356;2024-02-23T10:05:30;5.60;;;0.90;;
82744;SDS011;72484;50.004;14.356;2024-02-23T10:09:47;7.50;;;0.90;;
82744;SDS011;72484;50.004;14.356;2024-02-23T10:13:07;6.60;;;0.90;;
82744;SDS011;72484;50.004;14.356;2024-02-23T10:17:27;6.50;;;0.90;;
82744;SDS011;72484;50.004;14.356;2024-02-23T10:21:05;7.70;;;1.30;;
82744;SDS011;72484;50.004;14.356;2024-02-23T10:24:25;5.90;;;1.10;;
82744;SDS011;72484;50.004;14.356;2024-02-23T10:28:42;5.70;;;0.90;;
82744;SDS011;72484;50.004;14.356;2024-02-23T10:32:01;8.20;;;1.50;;
82744;SDS011;72484;50.004;14.356;2024-02-23T10:36:02;5.80;;;1.00;;
82744;SDS011;72484;50.004;14.356;2024-02-23T10:40:22;6.70;;;1.10;;
82744;SDS011;72484;50.004;14.356;2024-02-23T10:43:43;5.80;;;0.90;;
82744;SDS011;72484;50.004;14.356;2024-02-23T10:48:04;6.00;;;1.10;;
82744;SDS011;72484;50.004;14.356;2024-02-23T10:51:40;6.80;;;0.90;;
82744;SDS011;72484;50.004;14.356;2024-02-23T10:55:17;6.30;;;1.10;;
82744;SDS011;72484;50.004;14.356;2024-02-23T10:58:38;6.00;;;1.00;;
82744;SDS011;72484;50.004;14.356;2024-02-23T11:02:40;5.90;;;1.00;;
82744;SDS011;72484;50.004;14.356;2024-02-23T11:07:00;8.10;;;0.90;;
82744;SDS011;72484;50.004;14.356;2024-02-23T11:10:44;6.90;;;1.30;;
82744;SDS011;72484;50.004;14.356;2024-02-23T11:14:15;5.70;;;0.90;;
82744;SDS011;72484;50.004;14.356;2024-02-23T11:17:35;6.90;;;1.20;;
82744;SDS011;72484;50.004;14.356;2024-02-23T11:21:52;5.70;;;1.10;;
82744;SDS011;72484;50.004;14.356;2024-02-23T11:25:13;9.00;;;1.30;;
82744;SDS011;72484;50.004;14.356;2024-02-23T11:29:34;6.80;;;1.40;;
82744;SDS011;72484;50.004;14.356;2024-02-23T11:33:12;17.50;;;8.90;;
82744;SDS011;72484;50.004;14.356;2024-02-23T11:36:53;6.30;;;1.40;;
82744;SDS011;72484;50.004;14.356;2024-02-23T11:40:28;6.40;;;1.10;;
82744;SDS011;72484;50.004;14.356;2024-02-23T11:44:05;6.30;;;0.90;;
82744;SDS011;72484;50.004;14.356;2024-02-23T11:47:25;7.70;;;1.10;;
82744;SDS011;72484;50.004;14.356;2024-02-23T11:51:23;6.50;;;1.10;;
82744;SDS011;72484;50.004;14.356;2024-02-23T11:55:26;5.90;;;1.10;;
82744;SDS011;72484;50.004;14.356;2024-02-23T11:59:25;6.00;;;1.10;;
82744;SDS011;72484;50.004;14.356;2024-02-23T12:03:43;6.40;;;1.40;;
82744;SDS011;72484;50.004;14.356;2024-02-23T12:07:02;7.70;;;1.40;;
82744;SDS011;72484;50.004;14.356;2024-02-23T12:11:20;7.10;;;1.50;;
82744;SDS011;72484;50.004;14.356;2024-02-23T12:14:41;6.40;;;1.50;;
82744;SDS011;72484;50.004;14.356;2024-02-23T12:18:43;6.90;;;1.20;;
82744;SDS011;72484;50.004;14.356;2024-02-23T12:23:08;7.30;;;1.30;;
82744;SDS011;72484;50.004;14.356;2024-02-23T12:26:27;7.50;;;1.10;;
82744;SDS011;72484;50.004;14.356;2024-02-23T12:30:26;5.70;;;1.00;;
82744;SDS011;72484;50.004;14.356;2024-02-23T12:34:29;5.60;;;1.00;;
82744;SDS011;72484;50.004;14.356;2024-02-23T12:38:29;5.90;;;1.00;;
82744;SDS011;72484;50.004;14.356;2024-02-23T12:42:29;7.60;;;1.10;;
82744;SDS011;72484;50.004;14.356;2024-02-23T12:46:28;7.80;;;1.20;;
82744;SDS011;72484;50.004;14.356;2024-02-23T12:50:26;7.00;;;1.50;;
82744;SDS011;72484;50.004;14.356;2024-02-23T12:54:45;7.00;;;1.30;;
82744;SDS011;72484;50.004;14.356;2024-02-23T12:58:05;6.70;;;1.20;;
82744;SDS011;72484;50.004;14.356;2024-02-23T13:02:22;6.60;;;1.50;;
82744;SDS011;72484;50.004;14.356;2024-02-23T13:06:00;7.60;;;1.40;;
82744;SDS011;72484;50.004;14.356;2024-02-23T13:09:39;9.20;;;1.50;;
82744;SDS011;72484;50.004;14.356;2024-02-23T13:13:15;8.90;;;2.40;;
82744;SDS011;72484;50.004;14.356;2024-02-23T13:16:35;8.80;;;2.60;;
82744;SDS011;72484;50.004;14.356;2024-02-23T13:20:51;7.10;;;1.40;;
82744;SDS011;72484;50.004;14.356;2024-02-23T13:24:11;6.70;;;1.10;;
82744;SDS011;72484;50.004;14.356;2024-02-23T13:28:28;9.30;;;1.20;;
82744;SDS011;72484;50.004;14.356;2024-02-23T13:32:06;7.10;;;1.20;;
82744;SDS011;72484;50.004;14.356;2024-02-23T13:35:43;7.10;;;1.10;;
82744;SDS011;72484;50.004;14.356;2024-02-23T13:39:03;5.90;;;1.00;;
82744;SDS011;72484;50.004;14.356;2024-02-23T13:43:19;6.10;;;1.00;;
82744;SDS011;72484;50.004;14.356;2024-02-23T13:46:39;6.00;;;1.30;;
82744;SDS011;72484;50.004;14.356;2024-02-23T13:50:56;6.30;;;1.30;;
82744;SDS011;72484;50.004;14.356;2024-02-23T13:54:34;7.00;;;1.30;;
82744;SDS011;72484;50.004;14.356;2024-02-23T13:57:53;6.90;;;1.20;;
82744;SDS011;72484;50.004;14.356;2024-02-23T14:02:09;6.50;;;1.20;;
82744;SDS011;72484;50.004;14.356;2024-02-23T14:05:47;12.50;;;4.10;;
82744;SDS011;72484;50.004;14.356;2024-02-23T14:09:07;9.70;;;1.30;;
82744;SDS011;72484;50.004;14.356;2024-02-23T14:13:23;7.30;;;1.10;;
82744;SDS011;72484;50.004;14.356;2024-02-23T14:17:01;8.20;;;1.30;;
82744;SDS011;72484;50.004;14.356;2024-02-23T14:20:38;7.40;;;1.30;;
82744;SDS011;72484;50.004;14.356;2024-02-23T14:24:16;7.00;;;1.20;;
82744;SDS011;72484;50.004;14.356;2024-02-23T14:27:36;8.10;;;1.30;;
82744;SDS011;72484;50.004;14.356;2024-02-23T14:31:53;7.50;;;1.40;;
82744;SDS011;72484;50.004;14.356;2024-02-23T14:35:12;7.30;;;1.50;;
82744;SDS011;72484;50.004;14.356;2024-02-23T14:39:11;6.50;;;1.70;;
82744;SDS011;72484;50.004;14.356;2024-02-23T14:43:27;6.70;;;1.60;;
82744;SDS011;72484;50.004;14.356;2024-02-23T14:47:05;6.50;;;1.30;;
82744;SDS011;72484;50.004;14.356;2024-02-23T14:50:42;5.40;;;1.10;;
82744;SDS011;72484;50.004;14.356;2024-02-23T14:54:02;7.40;;;2.00;;
82744;SDS011;72484;50.004;14.356;2024-02-23T14:58:01;15.50;;;8.30;;
82744;SDS011;72484;50.004;14.356;2024-02-23T15:01:59;7.90;;;2.00;;
82744;SDS011;72484;50.004;14.356;2024-02-23T15:05:58;9.00;;;2.10;;
82744;SDS011;72484;50.004;14.356;2024-02-23T15:09:57;9.60;;;2.20;;
82744;SDS011;72484;50.004;14.356;2024-02-23T15:14:00;8.40;;;2.60;;
82744;SDS011;72484;50.004;14.356;2024-02-23T15:18:17;7.50;;;1.40;;
82744;SDS011;72484;50.004;14.356;2024-02-23T15:21:37;7.10;;;1.30;;
82744;SDS011;72484;50.004;14.356;2024-02-23T15:25:55;7.90;;;1.40;;
82744;SDS011;72484;50.004;14.356;2024-02-23T15:29:34;8.40;;;1.60;;
82744;SDS011;72484;50.004;14.356;2024-02-23T15:32:53;8.10;;;1.60;;
82744;SDS011;72484;50.004;14.356;2024-02-23T15:40:47;7.30;;;2.20;;
82744;SDS011;72484;50.004;14.356;2024-02-23T15:44:25;8.10;;;1.90;;
82744;SDS011;72484;50.004;14.356;2024-02-23T15:47:45;8.60;;;3.40;;
82744;SDS011;72484;50.004;14.356;2024-02-23T15:51:43;8.20;;;2.10;;
82744;SDS011;72484;50.004;14.356;2024-02-23T15:55:42;7.90;;;2.00;;
82744;SDS011;72484;50.004;14.356;2024-02-23T15:59:59;12.80;;;3.40;;
82744;SDS011;72484;50.004;14.356;2024-02-23T16:03:18;14.20;;;4.40;;
82744;SDS011;72484;50.004;14.356;2024-02-23T16:07:18;21.80;;;6.70;;
82744;SDS011;72484;50.004;14.356;2024-02-23T16:11:18;14.30;;;5.40;;
82744;SDS011;72484;50.004;14.356;2024-02-23T16:15:18;10.20;;;3.50;;
82744;SDS011;72484;50.004;14.356;2024-02-23T16:19:34;22.30;;;7.10;;
82744;SDS011;72484;50.004;14.356;2024-02-23T16:22:54;11.90;;;3.70;;
82744;SDS011;72484;50.004;14.356;2024-02-23T16:26:54;12.90;;;4.30;;
82744;SDS011;72484;50.004;14.356;2024-02-23T16:31:10;12.50;;;4.20;;
82744;SDS011;72484;50.004;14.356;2024-02-23T16:34:48;12.00;;;5.10;;
82744;SDS011;72484;50.004;14.356;2024-02-23T16:38:07;10.40;;;4.10;;
82744;SDS011;72484;50.004;14.356;2024-02-23T16:42:25;10.60;;;3.30;;
82744;SDS011;72484;50.004;14.356;2024-02-23T16:46:02;8.40;;;2.70;;
82744;SDS011;72484;50.004;14.356;2024-02-23T16:49:40;8.90;;;2.30;;
82744;SDS011;72484;50.004;14.356;2024-02-23T16:53:18;7.70;;;1.60;;
82744;SDS011;72484;50.004;14.356;2024-02-23T16:56:56;7.50;;;1.90;;
82744;SDS011;72484;50.004;14.356;2024-02-23T17:00:16;7.80;;;2.20;;
82744;SDS011;72484;50.004;14.356;2024-02-23T17:04:34;7.10;;;2.10;;
82744;SDS011;72484;50.004;14.356;2024-02-23T17:08:11;6.90;;;2.00;;
82744;SDS011;72484;50.004;14.356;2024-02-23T17:11:31;6.30;;;1.90;;
82744;SDS011;72484;50.004;14.356;2024-02-23T17:15:30;18.10;;;10.10;;
82744;SDS011;72484;50.004;14.356;2024-02-23T17:19:30;35.20;;;26.00;;
82744;SDS011;72484;50.004;14.356;2024-02-23T17:23:49;12.20;;;6.50;;
82744;SDS011;72484;50.004;14.356;2024-02-23T17:27:08;11.70;;;7.90;;
82744;SDS011;72484;50.004;14.356;2024-02-23T17:31:25;9.70;;;4.80;;
82744;SDS011;72484;50.004;14.356;2024-02-23T17:35:03;11.10;;;5.80;;
82744;SDS011;72484;50.004;14.356;2024-02-23T17:38:23;8.60;;;2.90;;
82744;SDS011;72484;50.004;14.356;2024-02-23T17:42:41;7.30;;;2.60;;
82744;SDS011;72484;50.004;14.356;2024-02-23T17:46:01;9.40;;;3.90;;
82744;SDS011;72484;50.004;14.356;2024-02-23T17:50:04;34.90;;;21.10;;
82744;SDS011;72484;50.004;14.356;2024-02-23T17:54:22;14.00;;;7.10;;
82744;SDS011;72484;50.004;14.356;2024-02-23T17:57:41;45.00;;;25.00;;
82744;SDS011;72484;50.004;14.356;2024-02-23T18:02:00;40.30;;;21.60;;
82744;SDS011;72484;50.004;14.356;2024-02-23T18:05:38;21.50;;;11.00;;
82744;SDS011;72484;50.004;14.356;2024-02-23T18:08:57;21.90;;;11.80;;
82744;SDS011;72484;50.004;14.356;2024-02-23T18:13:14;53.90;;;29.60;;
82744;SDS011;72484;50.004;14.356;2024-02-23T18:16:34;47.60;;;27.40;;
82744;SDS011;72484;50.004;14.356;2024-02-23T18:20:53;36.90;;;19.30;;
82744;SDS011;72484;50.004;14.356;2024-02-23T18:24:30;12.50;;;5.90;;
82744;SDS011;72484;50.004;14.356;2024-02-23T18:28:09;13.10;;;5.50;;
82744;SDS011;72484;50.004;14.356;2024-02-23T18:31:28;9.60;;;4.00;;
82744;SDS011;72484;50.004;14.356;2024-02-23T18:35:29;9.40;;;3.60;;
82744;SDS011;72484;50.004;14.356;2024-02-23T18:39:28;9.60;;;3.70;;
82744;SDS011;72484;50.004;14.356;2024-02-23T18:43:28;10.70;;;4.20;;
82744;SDS011;72484;50.004;14.356;2024-02-23T18:47:29;10.00;;;3.80;;
82744;SDS011;72484;50.004;14.356;2024-02-23T18:51:46;5.10;;;0.90;;
82744;SDS011;72484;50.004;14.356;2024-02-23T18:55:24;5.30;;;1.30;;
82744;SDS011;72484;50.004;14.356;2024-02-23T18:58:44;5.50;;;1.30;;
82744;SDS011;72484;50.004;14.356;2024-02-23T19:03:02;6.00;;;1.20;;
82744;SDS011;72484;50.004;14.356;2024-02-23T19:06:21;5.30;;;1.10;;
82744;SDS011;72484;50.004;14.356;2024-02-23T19:10:38;5.50;;;0.90;;
82744;SDS011;72484;50.004;14.356;2024-02-23T19:14:17;7.70;;;2.10;;
82744;SDS011;72484;50.004;14.356;2024-02-23T19:17:53;8.00;;;3.10;;
82744;SDS011;72484;50.004;14.356;2024-02-23T19:21:14;7.20;;;2.70;;
82744;SDS011;72484;50.004;14.356;2024-02-23T19:25:32;15.00;;;6.20;;
82744;SDS011;72484;50.004;14.356;2024-02-23T19:29:10;17.50;;;7.20;;
82744;SDS011;72484;50.004;14.356;2024-02-23T19:32:30;21.30;;;10.80;;
82744;SDS011;72484;50.004;14.356;2024-02-23T19:36:48;8.40;;;3.10;;
82744;SDS011;72484;50.004;14.356;2024-02-23T19:40:09;7.90;;;1.90;;
82744;SDS011;72484;50.004;14.356;2024-02-23T19:44:16;6.50;;;1.50;;
82744;SDS011;72484;50.004;14.356;2024-02-23T19:48:17;6.10;;;1.40;;
82744;SDS011;72484;50.004;14.356;2024-02-23T19:52:36;5.60;;;1.10;;
82744;SDS011;72484;50.004;14.356;2024-02-23T19:56:11;5.60;;;1.40;;
82744;SDS011;72484;50.004;14.356;2024-02-23T19:59:49;6.90;;;2.00;;
82744;SDS011;72484;50.004;14.356;2024-02-23T20:03:09;8.70;;;2.70;;
82744;SDS011;72484;50.004;14.356;2024-02-23T20:07:25;15.90;;;7.30;;
82744;SDS011;72484;50.004;14.356;2024-02-23T20:10:45;17.60;;;10.60;;
82744;SDS011;72484;50.004;14.356;2024-02-23T20:15:01;7.20;;;2.30;;
82744;SDS011;72484;50.004;14.356;2024-02-23T20:18:21;13.10;;;6.80;;
82744;SDS011;72484;50.004;14.356;2024-02-23T20:22:37;19.10;;;10.70;;
82744;SDS011;72484;50.004;14.356;2024-02-23T20:26:15;7.90;;;2.40;;
82744;SDS011;72484;50.004;14.356;2024-02-23T20:29:52;10.30;;;5.00;;
82744;SDS011;72484;50.004;14.356;2024-02-23T20:33:30;12.40;;;6.40;;
82744;SDS011;72484;50.004;14.356;2024-02-23T20:37:08;22.10;;;14.00;;
82744;SDS011;72484;50.004;14.356;2024-02-23T20:40:46;31.20;;;23.70;;
82744;SDS011;72484;50.004;14.356;2024-02-23T20:44:23;21.10;;;14.90;;
82744;SDS011;72484;50.004;14.356;2024-02-23T20:48:01;19.10;;;13.50;;
82744;SDS011;72484;50.004;14.356;2024-02-23T20:51:39;10.40;;;5.10;;
82744;SDS011;72484;50.004;14.356;2024-02-23T20:54:59;18.10;;;10.00;;
82744;SDS011;72484;50.004;14.356;2024-02-23T20:58:59;13.60;;;7.20;;
82744;SDS011;72484;50.004;14.356;2024-02-23T21:03:17;16.20;;;7.80;;
82744;SDS011;72484;50.004;14.356;2024-02-23T21:06:53;14.20;;;8.30;;
82744;SDS011;72484;50.004;14.356;2024-02-23T21:10:14;9.00;;;3.00;;
82744;SDS011;72484;50.004;14.356;2024-02-23T21:14:13;8.30;;;2.10;;
82744;SDS011;72484;50.004;14.356;2024-02-23T21:18:32;12.20;;;6.10;;
82744;SDS011;72484;50.004;14.356;2024-02-23T21:22:08;8.80;;;2.70;;
82744;SDS011;72484;50.004;14.356;2024-02-23T21:25:45;7.80;;;2.30;;
82744;SDS011;72484;50.004;14.356;2024-02-23T21:29:06;7.70;;;2.80;;
82744;SDS011;72484;50.004;14.356;2024-02-23T21:33:24;31.20;;;16.70;;
82744;SDS011;72484;50.004;14.356;2024-02-23T21:36:44;11.80;;;5.40;;
82744;SDS011;72484;50.004;14.356;2024-02-23T21:41:01;10.40;;;5.00;;
82744;SDS011;72484;50.004;14.356;2024-02-23T21:44:21;9.50;;;4.10;;
82744;SDS011;72484;50.004;14.356;2024-02-23T21:48:21;31.40;;;18.50;;
82744;SDS011;72484;50.004;14.356;2024-02-23T21:52:20;13.20;;;8.90;;
82744;SDS011;72484;50.004;14.356;2024-02-23T21:56:38;11.30;;;5.30;;
82744;SDS011;72484;50.004;14.356;2024-02-23T22:00:15;9.40;;;4.60;;
82744;SDS011;72484;50.004;14.356;2024-02-23T22:03:35;8.40;;;2.90;;
82744;SDS011;72484;50.004;14.356;2024-02-23T22:07:52;10.90;;;4.00;;
82744;SDS011;72484;50.004;14.356;2024-02-23T22:11:12;12.50;;;7.00;;
82744;SDS011;72484;50.004;14.356;2024-02-23T22:15:30;10.00;;;4.70;;
82744;SDS011;72484;50.004;14.356;2024-02-23T22:19:08;12.20;;;5.20;;
82744;SDS011;72484;50.004;14.356;2024-02-23T22:22:46;6.70;;;2.10;;
82744;SDS011;72484;50.004;14.356;2024-02-23T22:26:25;9.40;;;3.50;;
82744;SDS011;72484;50.004;14.356;2024-02-23T22:30:03;12.00;;;5.30;;
82744;SDS011;72484;50.004;14.356;2024-02-23T22:33:39;8.40;;;3.50;;